createdAt,value
2022-10-28T00:01:22.649Z,0.60
2022-10-28T00:03:54.006Z,1.00
2022-10-28T00:06:24.221Z,0.70
2022-10-28T00:08:52.360Z,1.00
2022-10-28T00:11:21.865Z,1.00
2022-10-28T00:13:50.874Z,0.97
2022-10-28T00:16:21.302Z,0.60
2022-10-28T00:18:53.790Z,1.00
2022-10-28T00:21:24.385Z,2.03
2022-10-28T00:23:52.661Z,1.10
2022-10-28T00:26:22.315Z,0.60
2022-10-28T00:28:53.373Z,1.07
2022-10-28T00:31:23.425Z,0.80
2022-10-28T00:33:52.850Z,0.53
2022-10-28T00:36:22.523Z,0.53
2022-10-28T00:38:52.472Z,0.67
2022-10-28T00:41:22.501Z,1.20
2022-10-28T00:43:53.708Z,0.50
2022-10-28T00:46:29.870Z,0.80
2022-10-28T00:49:04.066Z,0.60
2022-10-28T00:51:34.600Z,0.50
2022-10-28T00:54:03.970Z,0.80
2022-10-28T00:56:35.587Z,0.60
2022-10-28T00:59:08.470Z,1.13
2022-10-28T01:01:36.530Z,0.70
2022-10-28T01:04:06.306Z,0.93
2022-10-28T01:06:34.286Z,0.63
2022-10-28T01:09:02.229Z,0.70
2022-10-28T01:11:54.224Z,0.70
2022-10-28T01:14:31.857Z,0.60
2022-10-28T01:17:19.280Z,1.00
2022-10-28T01:20:36.182Z,0.73
2022-10-28T01:23:17.276Z,0.60
2022-10-28T01:26:18.872Z,0.80
2022-10-28T01:29:08.814Z,1.00
2022-10-28T01:31:42.637Z,0.97
2022-10-28T01:34:15.908Z,0.80
2022-10-28T01:36:54.701Z,0.97
2022-10-28T01:39:29.996Z,1.50
2022-10-28T01:42:03.466Z,1.60
2022-10-28T01:44:38.644Z,0.90
2022-10-28T01:47:13.193Z,0.80
2022-10-28T01:49:46.334Z,0.60
2022-10-28T01:52:17.805Z,0.53
2022-10-28T01:54:49.728Z,0.70
2022-10-28T01:57:19.675Z,0.53
2022-10-28T01:59:49.494Z,0.70
2022-10-28T02:02:19.499Z,0.50
2022-10-28T02:04:47.476Z,0.63
2022-10-28T02:07:16.400Z,0.50
2022-10-28T02:10:02.595Z,0.73
2022-10-28T02:12:34.374Z,0.60
2022-10-28T02:15:23.612Z,0.77
2022-10-28T02:18:24.888Z,0.60
2022-10-28T02:20:56.714Z,0.67
2022-10-28T02:23:39.326Z,0.70
2022-10-28T02:26:15.405Z,0.90
2022-10-28T02:28:49.433Z,0.93
2022-10-28T02:31:24.337Z,0.77
2022-10-28T02:33:58.280Z,0.67
2022-10-28T02:36:31.852Z,0.70
2022-10-28T02:39:02.139Z,0.70
2022-10-28T02:41:35.513Z,1.00
2022-10-28T02:44:08.404Z,0.70
2022-10-28T02:46:38.871Z,0.70
2022-10-28T02:49:10.224Z,0.77
2022-10-28T02:51:41.095Z,0.73
2022-10-28T02:54:12.115Z,0.80
2022-10-28T02:56:44.444Z,0.77
2022-10-28T02:59:14.118Z,0.70
2022-10-28T03:01:42.175Z,0.70
2022-10-28T03:04:11.565Z,1.27
2022-10-28T03:06:39.524Z,0.63
2022-10-28T03:09:07.514Z,0.70
2022-10-28T03:11:35.496Z,0.60
2022-10-28T03:14:03.616Z,0.87
2022-10-28T03:16:31.748Z,0.67
2022-10-28T03:18:59.971Z,0.80
2022-10-28T03:21:29.300Z,0.53
2022-10-28T03:23:57.440Z,0.60
2022-10-28T03:26:25.400Z,0.70
2022-10-28T03:28:53.467Z,0.63
2022-10-28T03:31:21.438Z,0.80
2022-10-28T03:33:49.414Z,0.70
2022-10-28T03:36:17.376Z,0.73
2022-10-28T03:38:46.689Z,0.50
2022-10-28T03:41:14.646Z,1.67
2022-10-28T03:43:42.608Z,0.50
2022-10-28T03:46:10.578Z,0.80
2022-10-28T03:48:38.567Z,0.70
2022-10-28T03:51:06.910Z,0.70
2022-10-28T03:53:34.995Z,0.60
2022-10-28T03:56:04.894Z,0.80
2022-10-28T03:58:35.109Z,0.60
2022-10-28T04:01:06.428Z,0.80
2022-10-28T04:03:34.423Z,0.77
2022-10-28T04:06:02.366Z,1.10
2022-10-28T04:08:30.322Z,0.77
2022-10-28T04:10:58.433Z,0.60
2022-10-28T04:13:27.836Z,0.53
2022-10-28T04:15:55.808Z,1.37
2022-10-28T04:18:23.802Z,1.00
2022-10-28T04:20:51.752Z,0.93
2022-10-28T04:23:19.728Z,0.50
2022-10-28T04:25:47.810Z,0.80
2022-10-28T04:28:15.776Z,0.50
2022-10-28T04:30:47.198Z,0.60
2022-10-28T04:33:15.170Z,0.80
2022-10-28T04:35:43.724Z,1.27
2022-10-28T04:38:12.364Z,0.53
2022-10-28T04:40:40.394Z,0.50
2022-10-28T04:43:09.994Z,0.60
2022-10-28T04:45:38.965Z,0.87
2022-10-28T04:48:09.757Z,0.90
2022-10-28T04:50:37.765Z,0.53
2022-10-28T04:53:05.899Z,0.70
2022-10-28T04:55:33.853Z,0.60
2022-10-28T04:58:02.315Z,0.50
2022-10-28T05:00:31.258Z,0.80
2022-10-28T05:03:02.705Z,0.57
2022-10-28T05:05:32.139Z,1.13
2022-10-28T05:08:00.262Z,1.47
2022-10-28T05:10:28.225Z,0.90
2022-10-28T05:12:56.162Z,0.70
2022-10-28T05:15:26.468Z,0.70
2022-10-28T05:17:55.276Z,0.50
2022-10-28T05:20:23.821Z,0.53
2022-10-28T05:22:55.546Z,0.60
2022-10-28T05:25:24.172Z,0.77
2022-10-28T05:27:52.565Z,0.60
2022-10-28T05:30:20.946Z,0.50
2022-10-28T05:32:51.549Z,0.70
2022-10-28T05:35:22.432Z,0.50
2022-10-28T05:37:50.361Z,0.80
2022-10-28T05:40:19.669Z,0.83
2022-10-28T05:42:47.768Z,0.60
2022-10-28T05:45:15.923Z,0.60
2022-10-28T05:47:45.143Z,0.60
2022-10-28T05:50:14.355Z,0.80
2022-10-28T05:52:46.743Z,0.70
2022-10-28T05:55:14.948Z,0.97
2022-10-28T05:57:44.473Z,1.33
2022-10-28T06:00:14.170Z,3.03
2022-10-28T06:02:42.145Z,0.70
2022-10-28T06:05:10.497Z,0.93
2022-10-28T06:07:39.545Z,1.30
2022-10-28T06:10:09.579Z,1.13
2022-10-28T06:12:36.022Z,0.90
2022-10-28T06:15:06.293Z,1.77
2022-10-28T06:17:34.268Z,0.90
2022-10-28T06:20:02.861Z,1.50
2022-10-28T06:22:30.832Z,1.00
2022-10-28T06:24:58.786Z,1.40
2022-10-28T06:27:26.727Z,1.10
2022-10-28T06:29:54.662Z,0.90
2022-10-28T06:32:24.004Z,1.40
2022-10-28T06:34:51.964Z,0.90
2022-10-28T06:37:19.974Z,0.83
2022-10-28T06:39:51.176Z,0.90
2022-10-28T06:42:20.366Z,1.67
2022-10-28T06:44:49.274Z,0.70
2022-10-28T06:47:18.771Z,1.63
2022-10-28T06:49:48.113Z,0.60
2022-10-28T06:52:16.065Z,0.70
2022-10-28T06:54:44.246Z,1.50
2022-10-28T06:57:12.483Z,0.70
2022-10-28T06:59:40.450Z,1.77
2022-10-28T07:02:10.785Z,1.20
2022-10-28T07:04:38.995Z,1.37
2022-10-28T07:07:08.342Z,0.70
2022-10-28T07:09:39.510Z,0.67
2022-10-28T07:12:08.692Z,1.00
2022-10-28T07:14:36.739Z,1.50
2022-10-28T07:17:04.893Z,1.03
2022-10-28T07:19:32.859Z,1.60
2022-10-28T07:22:00.834Z,2.30
2022-10-28T07:24:30.175Z,1.83
2022-10-28T07:26:58.131Z,3.70
2022-10-28T07:29:26.145Z,2.43
2022-10-28T07:31:55.655Z,2.67
2022-10-28T07:34:26.930Z,2.60
2022-10-28T07:36:56.686Z,2.20
2022-10-28T07:39:24.883Z,1.53
2022-10-28T07:41:54.344Z,1.60
2022-10-28T07:44:22.403Z,1.37
2022-10-28T07:46:54.186Z,1.50
2022-10-28T07:49:25.260Z,1.53
2022-10-28T07:51:53.316Z,1.30
2022-10-28T07:54:21.395Z,2.37
2022-10-28T07:56:49.351Z,1.70
2022-10-28T07:59:25.693Z,1.53
2022-10-28T08:01:55.306Z,1.70
2022-10-28T08:04:23.315Z,2.43
2022-10-28T08:06:51.369Z,1.30
2022-10-28T08:09:19.648Z,1.10
2022-10-28T08:11:47.631Z,1.40
2022-10-28T08:14:15.939Z,2.00
2022-10-28T08:16:46.866Z,1.43
2022-10-28T08:19:14.885Z,1.50
2022-10-28T08:21:42.830Z,1.63
2022-10-28T08:24:10.741Z,1.27
2022-10-28T08:26:38.691Z,1.70
2022-10-28T08:29:07.017Z,1.47
2022-10-28T08:31:35.325Z,3.80
2022-10-28T08:34:04.703Z,2.00
2022-10-28T08:36:32.831Z,1.60
2022-10-28T08:39:01.750Z,2.40
2022-10-28T08:41:35.986Z,1.73
2022-10-28T08:44:34.100Z,1.60
2022-10-28T08:47:12.294Z,0.90
2022-10-28T08:49:45.764Z,1.50
2022-10-28T08:52:26.339Z,1.50
2022-10-28T08:54:58.770Z,1.30
2022-10-28T08:57:33.799Z,1.00
2022-10-28T09:00:03.349Z,1.90
2022-10-28T09:02:44.624Z,0.90
2022-10-28T09:05:23.300Z,2.00
2022-10-28T09:07:51.739Z,1.07
2022-10-28T09:10:30.207Z,0.93
2022-10-28T09:13:06.410Z,1.07
2022-10-28T09:15:42.501Z,1.63
2022-10-28T09:18:18.968Z,1.50
2022-10-28T09:20:54.112Z,1.33
2022-10-28T09:23:28.990Z,0.90
2022-10-28T09:26:10.974Z,1.23
2022-10-28T09:28:57.525Z,1.83
2022-10-28T09:31:35.673Z,1.40
2022-10-28T09:34:18.093Z,1.23
2022-10-28T09:36:52.059Z,2.43
2022-10-28T09:39:27.684Z,1.30
2022-10-28T09:41:58.289Z,1.30
2022-10-28T09:44:35.519Z,1.60
2022-10-28T09:47:05.589Z,1.10
2022-10-28T09:49:37.598Z,1.03
2022-10-28T09:52:16.109Z,1.03
2022-10-28T09:54:50.227Z,1.13
2022-10-28T09:57:18.281Z,1.00
2022-10-28T09:59:46.875Z,1.13
2022-10-28T10:02:35.749Z,2.33
2022-10-28T10:05:05.008Z,1.00
2022-10-28T10:07:38.766Z,0.90
2022-10-28T10:10:14.097Z,1.03
2022-10-28T10:12:42.574Z,1.23
2022-10-28T10:15:17.668Z,1.10
2022-10-28T10:17:48.221Z,0.87
2022-10-28T10:20:18.558Z,2.03
2022-10-28T10:22:49.254Z,1.00
2022-10-28T10:25:31.111Z,1.00
2022-10-28T10:28:02.706Z,1.10
2022-10-28T10:30:34.723Z,1.00
2022-10-28T10:33:03.770Z,0.80
2022-10-28T10:35:34.146Z,2.23
2022-10-28T10:38:06.375Z,1.27
2022-10-28T10:40:36.361Z,1.07
2022-10-28T10:43:24.880Z,1.27
2022-10-28T10:46:02.503Z,0.70
2022-10-28T10:48:32.373Z,1.27
2022-10-28T10:51:06.346Z,1.43
2022-10-28T10:53:36.377Z,0.80
2022-10-28T10:56:06.895Z,1.13
2022-10-28T10:58:38.615Z,1.70
2022-10-28T11:01:09.475Z,1.00
2022-10-28T11:03:40.968Z,1.10
2022-10-28T11:06:23.483Z,1.20
2022-10-28T11:08:59.245Z,1.00
2022-10-28T11:11:34.994Z,1.03
2022-10-28T11:14:08.569Z,1.33
2022-10-28T11:16:48.925Z,0.60
2022-10-28T11:19:21.942Z,1.37
2022-10-28T11:22:03.232Z,0.80
2022-10-28T11:24:59.888Z,1.10
2022-10-28T11:27:35.431Z,1.33
2022-10-28T11:30:04.611Z,0.83
2022-10-28T11:32:54.568Z,1.00
2022-10-28T11:35:57.922Z,1.50
2022-10-28T11:38:45.413Z,1.00
2022-10-28T11:41:26.764Z,1.53
2022-10-28T11:43:58.610Z,0.90
2022-10-28T11:46:44.961Z,1.40
2022-10-28T11:49:38.366Z,1.57
2022-10-28T11:52:17.916Z,1.00
2022-10-28T11:54:56.777Z,1.30
2022-10-28T11:57:35.882Z,1.27
2022-10-28T12:00:17.067Z,1.43
2022-10-28T12:03:02.195Z,2.40
2022-10-28T12:05:39.622Z,0.90
2022-10-28T12:08:19.547Z,1.20
2022-10-28T12:11:00.437Z,1.17
2022-10-28T12:13:39.127Z,0.90
2022-10-28T12:16:14.295Z,0.90
2022-10-28T12:18:50.117Z,1.63
2022-10-28T12:21:25.789Z,0.73
2022-10-28T12:24:42.156Z,0.90
2022-10-28T12:27:17.220Z,1.00
2022-10-28T12:29:49.802Z,0.70
2022-10-28T12:32:23.619Z,1.10
2022-10-28T12:34:55.985Z,0.87
2022-10-28T12:37:26.747Z,1.10
2022-10-28T12:40:00.155Z,1.10
2022-10-28T12:42:33.611Z,1.50
2022-10-28T12:45:07.772Z,1.07
2022-10-28T12:47:43.216Z,0.70
2022-10-28T12:50:19.111Z,0.80
2022-10-28T12:52:54.408Z,0.80
2022-10-28T12:55:38.714Z,0.80
2022-10-28T12:58:15.622Z,1.10
2022-10-28T13:00:46.326Z,0.93
2022-10-28T13:03:16.384Z,0.77
2022-10-28T13:05:47.744Z,0.93
2022-10-28T13:11:57.236Z,0.60
2022-10-28T13:14:44.703Z,0.80
2022-10-28T13:17:33.845Z,1.07
2022-10-28T13:20:25.829Z,0.63
2022-10-28T13:23:05.579Z,1.97
2022-10-28T13:25:45.440Z,0.57
2022-10-28T13:28:18.131Z,0.80
2022-10-28T13:30:57.795Z,0.70
2022-10-28T13:33:27.534Z,0.87
2022-10-28T13:36:07.393Z,0.77
2022-10-28T13:38:36.067Z,0.90
2022-10-28T13:41:26.749Z,0.57
2022-10-28T13:44:20.841Z,0.80
2022-10-28T13:47:26.313Z,0.60
2022-10-28T13:50:21.740Z,0.90
2022-10-28T13:53:45.765Z,0.70
2022-10-28T13:56:32.715Z,0.83
2022-10-28T13:59:06.084Z,1.10
2022-10-28T14:02:01.598Z,0.80
2022-10-28T14:04:39.485Z,0.73
2022-10-28T14:07:21.417Z,1.03
2022-10-28T14:09:52.261Z,1.00
2022-10-28T14:12:25.814Z,0.83
2022-10-28T14:15:08.186Z,1.00
2022-10-28T14:17:39.487Z,1.00
2022-10-28T14:20:21.839Z,1.27
2022-10-28T14:22:51.128Z,1.03
2022-10-28T14:25:56.516Z,1.00
2022-10-28T14:28:53.245Z,1.00
2022-10-28T14:31:39.211Z,1.27
2022-10-28T14:34:38.527Z,0.70
2022-10-28T14:37:41.190Z,1.27
2022-10-28T14:40:33.899Z,1.00
2022-10-28T14:43:17.432Z,0.90
2022-10-28T14:45:58.934Z,0.70
2022-10-28T14:48:48.081Z,0.93
2022-10-28T14:51:18.943Z,0.93
2022-10-28T14:53:47.432Z,0.70
2022-10-28T14:58:52.849Z,1.37
2022-10-28T15:01:27.466Z,3.00
2022-10-28T15:04:02.778Z,1.53
2022-10-28T15:06:37.447Z,1.63
2022-10-28T15:09:10.485Z,1.83
2022-10-28T15:11:41.592Z,1.50
2022-10-28T15:14:31.312Z,2.07
2022-10-28T15:17:00.510Z,1.80
2022-10-28T15:19:30.390Z,1.37
2022-10-28T15:22:03.138Z,1.10
2022-10-28T15:24:31.219Z,1.47
2022-10-28T15:26:59.511Z,1.80
2022-10-28T15:29:27.856Z,1.70
2022-10-28T15:32:12.296Z,1.77
2022-10-28T15:34:42.330Z,1.70
2022-10-28T15:37:11.236Z,2.10
2022-10-28T15:39:40.691Z,2.27
2022-10-28T15:42:31.500Z,2.27
2022-10-28T15:45:00.628Z,2.70
2022-10-28T15:47:34.371Z,2.90
2022-10-28T15:50:20.851Z,3.50
2022-10-28T15:52:50.127Z,2.13
2022-10-28T15:58:34.116Z,2.07
2022-10-28T16:01:02.193Z,2.50
2022-10-28T16:03:42.889Z,2.20
2022-10-28T16:06:26.039Z,2.30
2022-10-28T16:09:15.629Z,5.87
2022-10-28T16:11:46.323Z,4.00
2022-10-28T16:14:42.488Z,3.33
2022-10-28T16:17:17.072Z,2.80
2022-10-28T16:19:51.399Z,2.57
2022-10-28T16:22:22.149Z,2.00
2022-10-28T16:24:52.093Z,1.57
2022-10-28T16:27:21.879Z,1.10
2022-10-28T16:29:50.641Z,2.23
2022-10-28T16:32:23.508Z,2.90
2022-10-28T16:34:51.478Z,2.40
2022-10-28T16:37:23.328Z,2.10
2022-10-28T16:39:51.578Z,3.00
2022-10-28T16:42:20.585Z,3.20
2022-10-28T16:44:48.781Z,3.33
2022-10-28T16:47:18.483Z,4.53
2022-10-28T16:49:52.526Z,2.97
2022-10-28T16:52:27.463Z,3.70
2022-10-28T16:54:55.722Z,3.03
2022-10-28T16:59:56.811Z,2.30
2022-10-28T17:02:28.555Z,2.13
2022-10-28T17:04:56.879Z,2.40
2022-10-28T17:07:26.836Z,2.03
2022-10-28T17:09:55.273Z,1.70
2022-10-28T17:12:24.701Z,2.40
2022-10-28T17:14:53.451Z,1.60
2022-10-28T17:17:21.454Z,1.97
2022-10-28T17:19:49.413Z,2.23
2022-10-28T17:22:17.385Z,2.17
2022-10-28T17:24:46.851Z,2.00
2022-10-28T17:27:14.839Z,1.50
2022-10-28T17:29:43.103Z,1.17
2022-10-28T17:32:11.134Z,1.57
2022-10-28T17:34:39.315Z,1.20
2022-10-28T17:37:07.853Z,2.13
2022-10-28T17:39:36.005Z,2.20
2022-10-28T17:42:05.521Z,1.10
2022-10-28T17:44:33.502Z,1.37
2022-10-28T17:47:01.560Z,1.57
2022-10-28T17:49:29.920Z,1.97
2022-10-28T17:51:57.941Z,1.83
2022-10-28T17:54:25.964Z,1.87
2022-10-28T17:56:53.923Z,2.83
2022-10-28T17:59:23.287Z,1.87
2022-10-28T18:01:51.448Z,2.87
2022-10-28T18:04:20.211Z,3.63
2022-10-28T18:06:48.198Z,5.17
2022-10-28T18:09:16.150Z,5.63
2022-10-28T18:11:44.126Z,4.47
2022-10-28T18:14:12.079Z,3.83
2022-10-28T18:16:41.424Z,4.30
2022-10-28T18:19:09.661Z,5.17
2022-10-28T18:21:37.654Z,3.67
2022-10-28T18:24:06.215Z,2.60
2022-10-28T18:26:35.528Z,3.90
2022-10-28T18:29:04.758Z,2.73
2022-10-28T18:31:34.130Z,2.93
2022-10-28T18:34:04.128Z,2.83
2022-10-28T18:36:35.631Z,3.00
2022-10-28T18:39:05.366Z,3.13
2022-10-28T18:41:34.518Z,2.73
2022-10-28T18:44:04.377Z,2.43
2022-10-28T18:46:34.650Z,3.20
2022-10-28T18:49:05.205Z,3.00
2022-10-28T18:51:33.457Z,3.03
2022-10-28T18:54:01.673Z,2.90
2022-10-28T18:56:30.868Z,3.53
2022-10-28T18:58:59.342Z,3.40
2022-10-28T19:01:29.031Z,2.10
2022-10-28T19:03:58.726Z,3.00
2022-10-28T19:06:29.837Z,3.47
2022-10-28T19:08:59.543Z,2.07
2022-10-28T19:11:30.164Z,1.57
2022-10-28T19:13:59.178Z,1.80
2022-10-28T19:16:27.842Z,2.50
2022-10-28T19:18:57.095Z,3.07
2022-10-28T19:21:27.765Z,3.53
2022-10-28T19:23:56.488Z,3.10
2022-10-28T19:26:25.053Z,2.30
2022-10-28T19:28:53.164Z,3.37
2022-10-28T19:31:23.195Z,2.53
2022-10-28T19:33:52.300Z,1.93
2022-10-28T19:36:22.316Z,2.40
2022-10-28T19:38:53.663Z,2.10
2022-10-28T19:41:23.910Z,1.70
2022-10-28T19:43:57.849Z,2.07
2022-10-28T19:46:27.763Z,2.73
2022-10-28T19:48:57.966Z,2.07
2022-10-28T19:51:28.239Z,2.10
2022-10-28T19:53:59.137Z,2.60
2022-10-28T19:56:28.161Z,2.07
2022-10-28T19:58:57.833Z,2.70
2022-10-28T20:01:28.462Z,2.50
2022-10-28T20:03:57.023Z,1.63
2022-10-28T20:06:26.728Z,2.83
2022-10-28T20:08:54.746Z,2.03
2022-10-28T20:11:26.697Z,2.13
2022-10-28T20:13:56.353Z,2.20
2022-10-28T20:16:25.552Z,1.20
2022-10-28T20:18:55.089Z,2.47
2022-10-28T20:21:24.566Z,1.43
2022-10-28T20:23:54.728Z,2.80
2022-10-28T20:26:26.608Z,1.90
2022-10-28T20:28:54.799Z,1.90
2022-10-28T20:31:24.241Z,1.50
2022-10-28T20:33:53.878Z,1.57
2022-10-28T20:36:26.403Z,2.07
2022-10-28T20:38:55.543Z,2.97
2022-10-28T20:41:26.145Z,2.00
2022-10-28T20:43:55.066Z,1.70
2022-10-28T20:46:23.789Z,2.20
2022-10-28T20:48:54.015Z,1.13
2022-10-28T20:51:22.708Z,1.00
2022-10-28T20:53:51.154Z,1.40
2022-10-28T20:56:20.833Z,1.03
2022-10-28T20:58:50.589Z,1.60
2022-10-28T21:01:21.448Z,2.13
2022-10-28T21:03:50.163Z,2.07
2022-10-28T21:06:18.704Z,1.50
2022-10-28T21:08:46.742Z,1.40
2022-10-28T21:11:17.202Z,1.40
2022-10-28T21:13:46.729Z,0.90
2022-10-28T21:16:16.057Z,1.37
2022-10-28T21:18:44.031Z,1.63
2022-10-28T21:21:12.587Z,0.87
2022-10-28T21:23:40.547Z,1.20
2022-10-28T21:26:09.275Z,1.27
2022-10-28T21:28:37.457Z,0.77
2022-10-28T21:31:07.147Z,0.90
2022-10-28T21:33:38.316Z,1.10
2022-10-28T21:36:08.440Z,0.70
2022-10-28T21:38:37.131Z,1.00
2022-10-28T21:41:07.487Z,1.10
2022-10-28T21:43:36.957Z,0.87
2022-10-28T21:46:05.761Z,1.07
2022-10-28T21:48:37.156Z,1.17
2022-10-28T21:51:10.186Z,0.80
2022-10-28T21:53:43.352Z,1.03
2022-10-28T21:56:17.002Z,1.10
2022-10-28T21:58:47.409Z,0.77
2022-10-28T22:01:17.198Z,1.17
2022-10-28T22:03:46.851Z,0.70
2022-10-28T22:06:14.868Z,0.97
2022-10-28T22:08:43.247Z,0.93
2022-10-28T22:11:14.062Z,0.77
2022-10-28T22:13:42.415Z,0.90
2022-10-28T22:16:13.331Z,0.90
2022-10-28T22:18:42.174Z,1.13
2022-10-28T22:21:13.192Z,0.90
2022-10-28T22:23:41.237Z,1.13
2022-10-28T22:26:11.224Z,0.90
2022-10-28T22:28:42.318Z,0.57
2022-10-28T22:31:12.330Z,1.30
2022-10-28T22:33:40.886Z,0.60
2022-10-28T22:36:11.891Z,1.00
2022-10-28T22:38:40.583Z,0.87
2022-10-28T22:41:12.478Z,1.00
2022-10-28T22:43:41.357Z,1.23
2022-10-28T22:46:10.795Z,1.17
2022-10-28T22:48:38.958Z,1.20
2022-10-28T22:51:07.130Z,0.93
2022-10-28T22:53:37.534Z,1.50
2022-10-28T22:56:06.564Z,0.83
2022-10-28T22:58:34.571Z,1.60
2022-10-28T23:01:10.078Z,1.67
2022-10-28T23:03:39.740Z,1.47
2022-10-28T23:06:08.530Z,1.00
2022-10-28T23:08:38.892Z,0.80
2022-10-28T23:11:07.793Z,1.33
2022-10-28T23:16:10.663Z,0.80
2022-10-28T23:18:39.095Z,0.60
2022-10-28T23:21:08.623Z,0.83
2022-10-28T23:23:38.176Z,0.90
2022-10-28T23:26:06.622Z,0.60
2022-10-28T23:28:34.652Z,1.13
2022-10-28T23:31:03.116Z,0.80
2022-10-28T23:33:32.216Z,1.03
2022-10-28T23:36:03.608Z,1.43
2022-10-28T23:38:32.054Z,1.30
2022-10-28T23:41:03.052Z,1.47
2022-10-28T23:43:32.066Z,1.27
2022-10-28T23:46:00.667Z,1.00
2022-10-28T23:48:29.921Z,0.80
2022-10-28T23:50:57.917Z,0.87
2022-10-28T23:53:25.968Z,0.70
2022-10-28T23:55:54.391Z,1.00
2022-10-28T23:58:24.248Z,0.70
